Time;durP1;ratioP1;P1;durP2;ratioP2;P2;SDS_P1;SDS_P2;PMS_P1;PMS_P2;Temp;Humidity;BMP_temperature;BMP_pressure;BME280_temperature;BME280_humidity;BME280_pressure;Samples;Min_cycle;Max_cycle;Signal;HPM_P1;HPM_P2
2022/03/20 04:02:31;;;;;;;5.45;4.68;;;15.90;50.30;;;;;;4990829;23;46173;-59
2022/03/20 04:04:57;;;;;;;5.55;4.55;;;15.90;50.30;;;;;;5008541;28;45626;-58
2022/03/20 04:07:23;;;;;;;6.82;4.75;;;15.80;50.30;;;;;;5012190;28;45509;-58
2022/03/20 04:09:48;;;;;;;7.72;5.45;;;15.90;50.30;;;;;;5009216;28;45240;-58
2022/03/20 04:12:14;;;;;;;6.45;5.05;;;15.80;50.30;;;;;;5030329;28;46607;-58
2022/03/20 04:14:41;;;;;;;6.43;5.05;;;15.80;50.30;;;;;;5026377;28;44704;-57
2022/03/20 04:17:07;;;;;;;6.75;5.15;;;15.80;50.30;;;;;;5032609;28;45245;-60
2022/03/20 04:19:32;;;;;;;5.63;4.45;;;15.80;50.30;;;;;;5020666;28;45465;-60
2022/03/20 04:21:59;;;;;;;5.65;4.55;;;15.80;50.20;;;;;;5020188;28;45450;-59
2022/03/20 04:24:25;;;;;;;6.15;5.07;;;15.80;50.30;;;;;;5012960;28;45891;-56
2022/03/20 04:26:50;;;;;;;5.93;4.72;;;15.80;50.30;;;;;;5019222;28;45596;-56
2022/03/20 04:29:16;;;;;;;5.60;4.53;;;15.80;50.30;;;;;;5035614;28;45005;-59
2022/03/20 04:31:42;;;;;;;7.22;5.53;;;15.80;50.30;;;;;;5025141;28;46351;-58
2022/03/20 04:34:07;;;;;;;6.47;5.07;;;15.80;50.30;;;;;;5030518;28;45264;-60
2022/03/20 04:36:34;;;;;;;6.25;4.80;;;15.80;50.30;;;;;;5037859;28;45141;-58
2022/03/20 04:39:00;;;;;;;6.25;4.80;;;15.80;50.30;;;;;;5037585;28;45536;-59
2022/03/20 04:41:26;;;;;;;6.68;4.80;;;15.80;50.30;;;;;;5020398;28;45185;-57
2022/03/20 04:43:52;;;;;;;6.35;5.13;;;15.80;50.30;;;;;;5019162;28;45259;-59
2022/03/20 04:46:18;;;;;;;6.38;5.10;;;15.80;50.30;;;;;;5027643;28;44795;-58
2022/03/20 04:59:41;;;;;;;6.03;5.13;;;15.70;50.20;;;;;;5024622;28;45531;-58
2022/03/20 05:02:06;;;;;;;6.07;5.15;;;15.70;50.20;;;;;;5024443;28;45565;-58
2022/03/20 05:04:32;;;;;;;6.43;4.93;;;15.70;50.20;;;;;;5009132;28;45035;-59
2022/03/20 05:06:58;;;;;;;6.88;5.30;;;15.70;50.20;;;;;;5022801;28;45919;-59
2022/03/20 05:14:56;;;;;;;6.22;4.55;;;15.70;50.30;;;;;;5022520;28;44880;-57
2022/03/20 05:17:21;;;;;;;7.32;5.45;;;15.70;50.30;;;;;;5029187;28;45268;-60
2022/03/20 05:19:47;;;;;;;6.55;5.10;;;15.70;50.30;;;;;;5017323;28;45683;-58
2022/03/20 05:22:12;;;;;;;6.85;5.18;;;15.70;50.30;;;;;;5021113;28;48041;-58
2022/03/20 05:24:39;;;;;;;8.10;5.45;;;15.60;50.20;;;;;;5022365;28;45569;-59
2022/03/20 05:27:04;;;;;;;7.63;5.70;;;15.60;50.20;;;;;;5008452;28;45619;-59
2022/03/20 05:29:31;;;;;;;6.53;5.18;;;15.60;50.20;;;;;;5024368;28;45150;-58
2022/03/20 05:31:56;;;;;;;6.25;5.15;;;15.60;50.20;;;;;;5022123;28;46117;-60
2022/03/20 05:34:22;;;;;;;6.85;5.63;;;15.60;50.20;;;;;;5017889;28;46525;-59
2022/03/20 05:36:48;;;;;;;5.72;4.90;;;15.60;50.20;;;;;;5023374;28;45180;-58
2022/03/20 05:39:14;;;;;;;6.60;4.95;;;15.60;50.20;;;;;;5015824;28;45307;-58
2022/03/20 05:41:50;;;;;;;7.22;5.35;;;15.60;50.20;;;;;;5013056;28;45366;-60
2022/03/20 05:44:16;;;;;;;6.65;4.95;;;15.60;50.20;;;;;;5024838;28;45357;-58
2022/03/20 05:46:46;;;;;;;6.72;4.95;;;15.60;50.20;;;;;;5015375;28;45424;-58
2022/03/20 05:49:18;;;;;;;8.00;5.28;;;15.60;50.10;;;;;;5017677;28;45425;-58
2022/03/20 05:51:45;;;;;;;7.35;5.45;;;15.70;50.10;;;;;;5018403;28;46623;-58
2022/03/20 05:54:10;;;;;;;6.53;5.60;;;15.70;50.10;;;;;;5017490;28;45190;-59
2022/03/20 05:59:20;;;;;;;6.78;5.40;;;15.70;50.00;;;;;;5023069;28;45178;-57
2022/03/20 06:01:45;;;;;;;6.57;5.05;;;15.80;49.90;;;;;;5030574;28;46077;-60
2022/03/20 06:04:11;;;;;;;6.80;5.53;;;15.80;49.80;;;;;;5035080;28;45005;-57
2022/03/20 06:06:37;;;;;;;7.25;5.40;;;15.80;49.70;;;;;;5023557;28;44950;-54
2022/03/20 06:09:05;;;;;;;7.30;5.97;;;15.90;49.50;;;;;;5025789;28;45149;-57
2022/03/20 06:11:34;;;;;;;5.60;5.03;;;16.00;49.50;;;;;;5026259;28;46197;-56
2022/03/20 06:14:00;;;;;;;5.93;5.03;;;16.00;49.40;;;;;;5021555;28;45044;-58
2022/03/20 06:16:29;;;;;;;6.30;5.13;;;16.00;49.50;;;;;;5021511;28;45563;-58
2022/03/20 06:18:55;;;;;;;6.38;5.28;;;15.90;49.60;;;;;;5015303;28;45500;-61
2022/03/20 06:21:22;;;;;;;8.02;5.63;;;15.90;49.70;;;;;;5028014;28;46304;-58
2022/03/20 06:23:48;;;;;;;9.27;5.75;;;15.90;49.70;;;;;;5030868;28;45376;-58
2022/03/20 06:26:14;;;;;;;7.57;5.63;;;15.90;49.70;;;;;;5033488;28;45347;-55
2022/03/20 06:28:40;;;;;;;7.00;5.78;;;15.90;49.80;;;;;;5033910;28;45340;-57
2022/03/20 06:31:10;;;;;;;7.43;5.60;;;15.90;49.80;;;;;;5027795;28;45320;-58
2022/03/20 06:33:37;;;;;;;7.82;5.22;;;15.90;49.80;;;;;;5029682;28;44972;-57
2022/03/20 06:36:03;;;;;;;7.65;5.78;;;15.90;49.80;;;;;;5026503;28;45325;-57
2022/03/20 06:38:30;;;;;;;7.75;5.10;;;15.90;49.80;;;;;;5026355;28;45331;-59
2022/03/20 06:40:56;;;;;;;6.45;5.20;;;15.90;49.80;;;;;;5025588;28;46058;-59
2022/03/20 06:43:23;;;;;;;7.72;5.70;;;15.90;49.90;;;;;;5032930;28;45109;-56
2022/03/20 06:45:49;;;;;;;5.68;4.70;;;15.90;49.90;;;;;;5027491;28;44694;-58
2022/03/20 06:48:15;;;;;;;6.70;5.35;;;15.90;49.90;;;;;;5029621;28;45286;-58
2022/03/20 06:50:41;;;;;;;8.38;6.38;;;15.90;49.90;;;;;;5023118;28;46036;-57
2022/03/20 06:53:06;;;;;;;7.93;5.97;;;15.90;49.90;;;;;;5027569;28;45288;-60
2022/03/20 06:55:32;;;;;;;6.88;5.28;;;15.90;49.80;;;;;;5025692;28;44672;-57
2022/03/20 06:57:58;;;;;;;7.55;5.80;;;16.00;49.90;;;;;;5027626;28;45257;-58
2022/03/20 07:00:25;;;;;;;7.18;5.85;;;16.00;49.90;;;;;;5026236;28;45169;-56
2022/03/20 07:02:53;;;;;;;7.72;5.65;;;16.00;49.90;;;;;;5028419;28;45472;-55
2022/03/20 07:05:19;;;;;;;6.85;5.70;;;16.00;49.90;;;;;;5027363;28;45411;-57
2022/03/20 07:07:45;;;;;;;9.80;5.32;;;16.00;49.80;;;;;;5028828;28;45332;-60
2022/03/20 07:10:11;;;;;;;5.75;4.97;;;16.00;49.90;;;;;;5028845;28;46223;-61
2022/03/20 07:12:37;;;;;;;6.40;4.95;;;16.00;49.80;;;;;;5012116;28;45502;-59
2022/03/20 07:15:02;;;;;;;6.63;5.47;;;16.10;49.80;;;;;;5027179;28;45259;-60
2022/03/20 07:17:28;;;;;;;6.32;4.82;;;16.20;49.70;;;;;;5022372;28;45395;-58
2022/03/20 07:19:53;;;;;;;6.90;4.97;;;16.30;49.60;;;;;;5027336;28;45997;-59
2022/03/20 07:22:22;;;;;;;6.75;5.20;;;16.40;49.50;;;;;;5024944;28;44902;-59
2022/03/20 07:24:48;;;;;;;5.13;4.30;;;16.50;49.30;;;;;;5020289;28;46356;-54
2022/03/20 07:29:58;;;;;;;4.95;4.05;;;16.80;49.00;;;;;;5025555;28;47887;-57
2022/03/20 07:32:23;;;;;;;5.50;4.28;;;16.90;48.80;;;;;;5031424;28;45276;-57
2022/03/20 07:34:49;;;;;;;6.38;4.55;;;17.00;48.70;;;;;;5026227;28;45120;-59
2022/03/20 07:37:16;;;;;;;5.15;4.43;;;17.20;48.60;;;;;;5031972;28;44725;-55
2022/03/20 07:39:48;;;;;;;5.43;4.47;;;17.30;48.50;;;;;;5026791;28;46079;-56
2022/03/20 07:42:14;;;;;;;5.57;4.32;;;17.40;48.30;;;;;;5028129;28;44566;-55
2022/03/20 07:44:41;;;;;;;5.28;4.25;;;17.50;48.30;;;;;;5031581;28;45564;-58
2022/03/20 07:47:08;;;;;;;;;;;17.60;48.10;;;;;;5022472;28;45117;-56
2022/03/20 07:49:37;;;;;;;;;;;17.70;47.80;;;;;;5026309;28;46778;-54
2022/03/20 07:52:04;;;;;;;4.43;3.40;;;17.80;47.80;;;;;;5030302;28;45460;-55
2022/03/20 07:54:30;;;;;;;4.53;3.97;;;18.00;47.90;;;;;;5039034;28;45298;-55
2022/03/20 07:56:55;;;;;;;5.22;3.90;;;18.10;47.60;;;;;;5034578;28;45729;-55
2022/03/20 07:59:21;;;;;;;4.07;3.45;;;18.30;47.40;;;;;;5031670;28;47243;-56
2022/03/20 08:01:46;;;;;;;4.50;3.72;;;18.40;47.20;;;;;;5026177;28;44824;-58
2022/03/20 08:04:12;;;;;;;4.07;3.67;;;18.50;47.20;;;;;;5028801;28;45517;-56
2022/03/20 08:06:38;;;;;;;4.90;4.07;;;18.60;47.10;;;;;;5030776;28;45867;-59
2022/03/20 08:09:03;;;;;;;4.22;3.65;;;18.70;47.00;;;;;;5026818;28;45179;-56
2022/03/20 08:11:30;;;;;;;4.40;3.90;;;18.80;46.90;;;;;;5031410;28;45290;-56
2022/03/20 08:13:57;;;;;;;5.82;3.72;;;18.90;46.80;;;;;;5035324;28;45290;-58
2022/03/20 08:16:25;;;;;;;4.30;3.90;;;19.00;46.70;;;;;;5032685;28;45423;-55
2022/03/20 08:18:55;;;;;;;4.03;3.35;;;19.10;46.70;;;;;;5040859;28;47198;-60
2022/03/20 08:21:20;;;;;;;6.05;3.67;;;19.20;46.60;;;;;;5034255;28;45218;-55
2022/03/20 08:23:46;;;;;;;4.45;3.45;;;19.30;46.50;;;;;;5031369;28;45469;-57
2022/03/20 08:26:12;;;;;;;3.83;3.10;;;19.40;46.40;;;;;;5033309;28;45223;-56
2022/03/20 08:28:45;;;;;;;3.83;3.28;;;19.50;46.30;;;;;;5034211;28;46038;-58
2022/03/20 08:31:12;;;;;;;4.40;3.22;;;19.60;46.20;;;;;;5028031;28;45314;-59
2022/03/20 08:33:39;;;;;;;3.80;3.40;;;19.70;46.20;;;;;;5025775;28;45044;-59
2022/03/20 08:36:05;;;;;;;4.90;3.33;;;19.80;46.80;;;;;;5028253;28;45299;-58
2022/03/20 08:38:31;;;;;;;3.60;3.10;;;19.90;46.10;;;;;;5030105;28;45329;-59
2022/03/20 08:40:56;;;;;;;4.13;3.45;;;20.00;46.00;;;;;;5025843;28;45395;-56
2022/03/20 08:43:22;;;;;;;4.25;3.28;;;20.00;45.90;;;;;;5024267;28;45041;-56
2022/03/20 08:45:48;;;;;;;5.75;3.90;;;20.10;45.70;;;;;;5025273;28;45401;-58
2022/03/20 08:48:16;;;;;;;4.72;3.33;;;20.20;45.70;;;;;;5027350;28;45898;-56
2022/03/20 08:50:48;;;;;;;4.53;3.58;;;20.30;45.60;;;;;;5021368;28;45237;-55
2022/03/20 08:53:18;;;;;;;4.00;3.53;;;20.40;45.60;;;;;;5021897;28;45462;-58
2022/03/20 08:55:44;;;;;;;4.03;3.33;;;20.50;45.50;;;;;;5020976;28;45442;-60
2022/03/20 08:58:11;;;;;;;3.42;3.13;;;20.60;45.40;;;;;;5025366;28;45528;-60
2022/03/20 09:00:37;;;;;;;3.35;2.95;;;20.70;45.30;;;;;;5024621;28;45529;-59
2022/03/20 09:03:03;;;;;;;3.28;2.95;;;20.80;45.20;;;;;;5010248;28;45263;-57
2022/03/20 09:05:28;;;;;;;3.55;3.15;;;20.90;45.10;;;;;;5026126;28;45453;-57
2022/03/20 09:07:57;;;;;;;3.45;2.78;;;21.00;45.10;;;;;;5010772;28;46684;-57
2022/03/20 09:10:23;;;;;;;4.10;3.42;;;21.10;45.00;;;;;;5025089;28;45033;-56
2022/03/20 09:12:48;;;;;;;3.55;2.80;;;21.10;44.90;;;;;;5026500;28;45188;-58
2022/03/20 09:15:15;;;;;;;3.05;2.72;;;21.20;44.80;;;;;;5028347;28;44762;-55
2022/03/20 09:20:30;;;;;;;4.07;3.38;;;21.40;44.50;;;;;;5022303;28;44800;-55
2022/03/20 09:22:55;;;;;;;3.28;2.97;;;21.50;44.60;;;;;;5031910;28;45320;-57
2022/03/20 09:25:21;;;;;;;3.33;2.83;;;21.60;44.60;;;;;;5028596;28;45417;-56
2022/03/20 09:27:48;;;;;;;4.80;3.08;;;21.60;44.40;;;;;;5027231;28;45235;-56
2022/03/20 09:30:17;;;;;;;3.10;2.80;;;21.70;44.40;;;;;;5023625;28;45219;-58
2022/03/20 09:32:43;;;;;;;3.20;2.72;;;21.80;44.30;;;;;;5023044;28;45571;-56
2022/03/20 09:35:09;;;;;;;3.58;3.00;;;21.90;44.30;;;;;;5022794;28;45591;-57
2022/03/20 09:37:35;;;;;;;3.80;2.67;;;21.90;44.10;;;;;;5029209;28;46094;-56
2022/03/20 09:40:03;;;;;;;3.10;2.63;;;22.00;44.10;;;;;;5028310;28;45303;-57
2022/03/20 09:42:29;;;;;;;3.08;2.78;;;22.10;44.00;;;;;;5015261;28;45556;-56
2022/03/20 09:44:55;;;;;;;3.85;3.10;;;22.10;43.90;;;;;;5025301;28;45460;-57
2022/03/20 09:47:25;;;;;;;3.50;3.20;;;22.20;43.90;;;;;;5024128;28;45263;-59
2022/03/20 09:49:51;;;;;;;3.63;2.90;;;22.20;43.80;;;;;;5018148;28;45130;-60
2022/03/20 09:52:20;;;;;;;3.17;2.75;;;22.10;43.80;;;;;;5009333;28;44701;-58
2022/03/20 09:54:46;;;;;;;3.50;2.88;;;22.10;43.90;;;;;;5024469;28;45271;-58
2022/03/20 09:57:12;;;;;;;3.38;3.05;;;22.00;43.90;;;;;;5026748;28;46042;-58
2022/03/20 09:59:40;;;;;;;6.28;2.78;;;22.00;44.00;;;;;;5024576;28;45586;-59
2022/03/20 10:02:10;;;;;;;3.53;3.22;;;21.90;44.00;;;;;;5022009;28;45926;-58
2022/03/20 10:04:57;;;;;;;3.60;3.00;;;21.90;44.00;;;;;;5039426;28;45197;-56
2022/03/20 10:07:33;;;;;;;3.00;2.70;;;21.80;43.70;;;;;;5022836;28;45502;-56
2022/03/20 10:10:06;;;;;;;5.20;3.35;;;21.80;44.00;;;;;;5021180;28;45595;-54
2022/03/20 10:12:36;;;;;;;3.70;2.93;;;21.70;44.10;;;;;;5025821;28;45344;-58
2022/03/20 10:15:02;;;;;;;3.45;2.90;;;21.70;44.30;;;;;;5028862;28;45393;-56
2022/03/20 10:17:28;;;;;;;3.55;3.13;;;21.60;44.40;;;;;;5023058;28;44998;-58
2022/03/20 10:19:55;;;;;;;4.03;3.05;;;21.60;44.40;;;;;;5008286;28;45668;-58
2022/03/20 10:22:21;;;;;;;3.30;3.00;;;21.50;44.50;;;;;;4986377;28;45071;-60
2022/03/20 10:24:51;;;;;;;3.33;3.03;;;21.50;44.60;;;;;;5023623;28;45676;-58
2022/03/20 10:27:16;;;;;;;4.57;3.20;;;21.50;44.50;;;;;;5021771;28;45177;-58
2022/03/20 10:30:01;;;;;;;3.88;3.15;;;21.40;44.60;;;;;;5021049;28;44654;-58
2022/03/20 10:32:27;;;;;;;3.35;2.85;;;21.40;44.60;;;;;;5023666;28;45431;-57
2022/03/20 10:34:56;;;;;;;2.92;2.60;;;21.30;44.70;;;;;;5028830;28;45774;-57
2022/03/20 10:37:46;;;;;;;3.15;2.85;;;21.30;44.80;;;;;;5012901;28;47054;-56
2022/03/20 10:40:14;;;;;;;4.85;2.72;;;21.20;44.50;;;;;;5021750;28;45460;-57
2022/03/20 10:42:41;;;;;;;3.40;2.90;;;21.20;44.90;;;;;;5023330;28;45418;-57
2022/03/20 10:45:07;;;;;;;3.47;3.15;;;21.10;44.90;;;;;;5023095;28;44948;-57
2022/03/20 10:47:33;;;;;;;3.38;3.08;;;21.10;44.90;;;;;;5020521;28;46311;-57
2022/03/20 10:50:09;;;;;;;4.10;3.38;;;21.00;45.00;;;;;;5012366;28;45310;-58
2022/03/20 10:52:38;;;;;;;3.47;3.10;;;21.00;44.90;;;;;;5033813;28;44985;-57
2022/03/20 10:55:12;;;;;;;3.30;3.00;;;21.00;45.10;;;;;;5022009;28;44870;-55
2022/03/20 10:57:39;;;;;;;5.50;3.45;;;20.90;45.00;;;;;;5021905;28;45797;-59
2022/03/20 11:00:07;;;;;;;3.55;3.22;;;20.80;45.10;;;;;;5028227;28;45518;-57
2022/03/20 11:02:35;;;;;;;4.03;3.17;;;20.90;45.30;;;;;;5028727;28;45372;-57
2022/03/20 11:05:00;;;;;;;3.50;2.95;;;20.80;45.30;;;;;;5004275;28;45405;-58
2022/03/20 11:07:27;;;;;;;3.53;3.20;;;20.80;45.30;;;;;;5018728;28;45511;-56
2022/03/20 11:09:54;;;;;;;4.97;3.20;;;20.70;45.30;;;;;;5021367;28;44700;-56
2022/03/20 11:12:37;;;;;;;3.78;3.38;;;20.70;45.30;;;;;;5023440;28;45194;-58
2022/03/20 11:15:06;;;;;;;3.67;3.22;;;20.70;45.20;;;;;;5020385;28;45373;-58
2022/03/20 11:17:41;;;;;;;3.85;3.40;;;20.60;45.40;;;;;;5028342;28;45945;-56
2022/03/20 11:20:07;;;;;;;4.45;3.33;;;20.60;45.40;;;;;;5036950;28;45255;-57
2022/03/20 11:22:34;;;;;;;3.95;3.30;;;20.50;45.40;;;;;;5028343;28;45290;-58
2022/03/20 11:24:59;;;;;;;4.13;3.30;;;20.50;45.50;;;;;;5017019;28;44703;-58
2022/03/20 11:27:27;;;;;;;3.67;3.20;;;20.50;45.50;;;;;;5004536;28;46308;-55
2022/03/20 11:30:05;;;;;;;3.20;2.90;;;20.40;45.50;;;;;;5023554;28;45436;-57
2022/03/20 11:32:31;;;;;;;5.50;3.25;;;20.40;45.50;;;;;;5017795;28;45475;-58
2022/03/20 11:34:56;;;;;;;3.78;3.15;;;20.40;45.60;;;;;;5031640;28;45561;-57
2022/03/20 11:37:22;;;;;;;4.22;3.42;;;20.30;45.60;;;;;;5035586;28;45458;-53
2022/03/20 11:40:17;;;;;;;3.47;3.15;;;20.30;45.60;;;;;;5027057;28;44994;-54
2022/03/20 11:42:43;;;;;;;3.92;3.50;;;20.30;45.60;;;;;;5026572;28;45249;-58
2022/03/20 11:45:11;;;;;;;4.00;3.60;;;20.20;45.70;;;;;;5019292;28;45426;-58
2022/03/20 11:47:37;;;;;;;4.20;3.63;;;20.20;45.70;;;;;;5023498;28;46179;-57
2022/03/20 11:50:10;;;;;;;4.30;3.45;;;20.20;45.80;;;;;;5026537;28;45618;-58
2022/03/20 11:52:48;;;;;;;5.10;3.80;;;20.20;45.80;;;;;;5020331;28;45419;-58
2022/03/20 11:55:42;;;;;;;3.47;3.17;;;20.10;45.80;;;;;;5015869;28;45375;-58
2022/03/20 11:58:12;;;;;;;4.30;3.45;;;20.10;45.80;;;;;;5022359;28;46600;-59
2022/03/20 12:00:40;;;;;;;3.80;3.40;;;20.10;45.90;;;;;;5023167;28;45669;-57
2022/03/20 12:03:10;;;;;;;3.92;3.53;;;20.00;45.90;;;;;;5024597;28;45144;-58
2022/03/20 12:05:42;;;;;;;4.07;3.30;;;20.00;46.00;;;;;;5028562;28;45531;-55
2022/03/20 12:08:38;;;;;;;4.30;3.80;;;20.00;45.90;;;;;;5022614;28;46222;-57
2022/03/20 12:11:09;;;;;;;4.68;3.72;;;20.00;45.90;;;;;;5028536;28;45214;-56
2022/03/20 12:13:54;;;;;;;3.70;3.30;;;20.00;46.00;;;;;;5031890;28;45121;-55
2022/03/20 12:16:42;;;;;;;4.43;3.58;;;19.90;46.00;;;;;;5016594;28;45248;-57
2022/03/20 12:19:14;;;;;;;4.30;3.45;;;19.90;46.00;;;;;;5024731;28;46127;-55
2022/03/20 12:22:00;;;;;;;4.30;3.58;;;19.90;46.10;;;;;;5028383;28;45515;-56
2022/03/20 12:24:35;;;;;;;4.00;3.20;;;19.80;46.00;;;;;;5031742;28;45397;-57
2022/03/20 12:27:19;;;;;;;4.07;3.30;;;19.80;46.10;;;;;;5027990;28;45033;-55
2022/03/20 12:29:46;;;;;;;3.90;3.50;;;19.80;46.10;;;;;;5016391;28;45521;-57
2022/03/20 12:32:12;;;;;;;5.43;3.28;;;19.70;46.20;;;;;;5015253;28;45708;-56
2022/03/20 12:34:42;;;;;;;4.10;3.40;;;19.70;46.30;;;;;;5018175;28;45253;-58
2022/03/20 12:37:48;;;;;;;4.30;3.65;;;19.70;46.30;;;;;;5023125;28;45268;-54
2022/03/20 12:40:20;;;;;;;3.67;3.13;;;19.70;46.30;;;;;;4969248;28;46100;-54
2022/03/20 12:43:11;;;;;;;4.20;3.73;;;19.60;46.30;;;;;;4946172;28;45534;-54
2022/03/20 12:45:41;;;;;;;4.07;3.08;;;19.60;46.30;;;;;;5007384;28;45394;-58
2022/03/20 12:48:17;;;;;;;4.10;3.63;;;19.60;46.40;;;;;;5023014;28;45050;-57
2022/03/20 12:50:45;;;;;;;4.43;3.50;;;19.50;46.40;;;;;;5023770;28;45638;-57
2022/03/20 12:53:19;;;;;;;4.97;3.75;;;19.60;46.50;;;;;;5015633;28;45449;-58
2022/03/20 12:55:58;;;;;;;3.92;3.30;;;19.50;46.50;;;;;;5025661;28;44724;-58
2022/03/20 12:58:24;;;;;;;4.20;3.42;;;19.50;46.50;;;;;;5001327;28;44854;-53
2022/03/20 13:00:50;;;;;;;4.55;3.63;;;19.50;46.60;;;;;;5020252;28;46114;-57
2022/03/20 13:03:18;;;;;;;4.03;3.63;;;19.50;46.60;;;;;;5024050;28;45547;-57
2022/03/20 13:05:51;;;;;;;3.25;2.92;;;19.40;46.60;;;;;;5024976;28;45457;-58
2022/03/20 13:08:23;;;;;;;3.70;3.13;;;19.40;46.60;;;;;;5025269;28;45631;-56
2022/03/20 13:10:54;;;;;;;3.47;3.17;;;19.40;46.70;;;;;;5018209;28;45745;-58
2022/03/20 13:13:20;;;;;;;3.85;3.45;;;19.40;46.70;;;;;;5025926;28;44739;-53
2022/03/20 13:15:46;;;;;;;4.28;3.78;;;19.40;46.80;;;;;;5031875;28;45112;-56
2022/03/20 13:18:12;;;;;;;3.88;3.28;;;19.30;46.80;;;;;;5027279;28;45020;-53
2022/03/20 13:20:43;;;;;;;4.15;3.60;;;19.30;46.80;;;;;;5025224;28;45882;-57
2022/03/20 13:23:13;;;;;;;4.60;3.75;;;19.30;46.80;;;;;;5024858;28;45189;-56
2022/03/20 13:25:42;;;;;;;4.03;3.63;;;19.30;46.90;;;;;;5027636;28;44973;-56
2022/03/20 13:28:14;;;;;;;4.55;3.83;;;19.30;46.90;;;;;;5021358;28;45412;-56
2022/03/20 13:30:42;;;;;;;4.00;3.60;;;19.20;46.90;;;;;;5017926;28;46108;-56
2022/03/20 13:33:07;;;;;;;3.85;3.40;;;19.20;46.90;;;;;;5016696;28;45062;-59
2022/03/20 13:35:33;;;;;;;5.13;3.72;;;19.20;46.90;;;;;;5025190;28;45437;-57
2022/03/20 13:38:01;;;;;;;4.18;3.70;;;19.20;47.00;;;;;;5027752;28;45308;-57
2022/03/20 13:40:32;;;;;;;4.18;3.40;;;19.10;47.00;;;;;;5021234;28;45558;-59
2022/03/20 13:42:57;;;;;;;4.68;3.60;;;19.10;47.00;;;;;;5032759;28;45469;-57
2022/03/20 13:45:25;;;;;;;5.03;4.00;;;19.10;47.10;;;;;;5036031;28;45263;-55
2022/03/20 13:47:51;;;;;;;4.80;3.50;;;19.10;47.10;;;;;;5025595;28;45466;-56
2022/03/20 13:50:17;;;;;;;4.13;3.53;;;19.10;47.20;;;;;;5023500;28;46006;-56
2022/03/20 13:52:43;;;;;;;4.88;3.83;;;19.00;47.20;;;;;;5027128;28;45665;-58
2022/03/20 13:55:13;;;;;;;4.22;3.28;;;19.00;47.10;;;;;;5019985;28;45154;-58
2022/03/20 13:57:48;;;;;;;4.32;3.70;;;19.00;47.20;;;;;;5031400;28;45526;-57
2022/03/20 14:00:14;;;;;;;4.13;3.50;;;19.00;47.20;;;;;;5019011;28;45465;-56
2022/03/20 14:02:50;;;;;;;3.50;3.05;;;19.00;47.30;;;;;;5028181;28;45142;-57
2022/03/20 14:05:27;;;;;;;4.90;3.45;;;19.00;47.90;;;;;;5022162;28;44835;-58
2022/03/20 14:08:08;;;;;;;4.10;3.42;;;18.90;47.30;;;;;;5020036;28;45467;-58
2022/03/20 14:10:55;;;;;;;3.58;3.22;;;19.00;47.30;;;;;;5019170;28;46658;-59
2022/03/20 14:13:26;;;;;;;3.60;3.03;;;18.90;47.40;;;;;;5016156;28;45224;-59
2022/03/20 14:16:07;;;;;;;4.07;3.55;;;18.90;47.30;;;;;;5030387;28;45356;-58
2022/03/20 14:18:43;;;;;;;4.57;3.60;;;18.90;47.40;;;;;;5025096;28;44974;-58
2022/03/20 14:21:22;;;;;;;4.07;3.47;;;18.90;47.40;;;;;;5016712;28;46185;-53
2022/03/20 14:24:04;;;;;;;3.40;2.85;;;18.90;47.50;;;;;;5027989;28;45698;-59
2022/03/20 14:26:31;;;;;;;3.65;3.28;;;18.90;47.50;;;;;;5031517;28;45322;-55
2022/03/20 14:29:09;;;;;;;4.18;3.40;;;18.80;47.50;;;;;;5018723;28;45334;-54
2022/03/20 14:40:06;;;;;;;3.85;3.10;;;18.80;47.60;;;;;;5017949;28;45665;-58
2022/03/20 14:42:34;;;;;;;3.88;3.50;;;18.80;47.60;;;;;;5023269;28;45766;-56
2022/03/20 14:45:01;;;;;;;4.10;3.65;;;18.80;47.70;;;;;;5026629;28;44749;-58
2022/03/20 14:47:26;;;;;;;3.80;3.38;;;18.70;47.60;;;;;;5016194;28;45620;-56
2022/03/20 14:49:54;;;;;;;4.68;3.60;;;18.80;47.70;;;;;;5021450;28;45402;-57
2022/03/20 14:52:19;;;;;;;3.75;3.35;;;18.70;47.60;;;;;;5020655;28;45205;-59
2022/03/20 14:54:46;;;;;;;3.83;3.42;;;18.70;47.70;;;;;;5016584;28;45225;-57
2022/03/20 14:57:12;;;;;;;3.30;2.97;;;18.70;47.70;;;;;;5005211;28;45306;-56
2022/03/20 14:59:39;;;;;;;4.72;3.38;;;18.70;47.70;;;;;;5014014;28;45324;-58
2022/03/20 15:02:05;;;;;;;4.03;3.47;;;18.70;47.70;;;;;;5018974;28;45759;-60
2022/03/20 15:04:33;;;;;;;4.03;3.63;;;18.70;47.70;;;;;;5015863;28;45413;-57
2022/03/20 15:06:59;;;;;;;4.57;3.33;;;18.70;47.80;;;;;;5021669;28;45184;-57
2022/03/20 15:12:09;;;;;;;4.40;3.85;;;18.60;47.80;;;;;;5018481;28;46126;-59
2022/03/20 15:14:34;;;;;;;4.32;3.70;;;18.60;47.90;;;;;;5021883;28;45415;-56
2022/03/20 15:17:00;;;;;;;4.35;3.65;;;18.60;48.40;;;;;;5021996;28;45760;-58
2022/03/20 15:19:25;;;;;;;4.05;3.65;;;18.60;47.80;;;;;;5017637;28;45660;-58
2022/03/20 15:21:51;;;;;;;3.80;3.40;;;18.60;47.80;;;;;;5025285;28;46169;-58
2022/03/20 15:24:17;;;;;;;3.60;3.22;;;18.60;47.90;;;;;;5022659;28;48103;-56
2022/03/20 15:26:43;;;;;;;4.70;4.22;;;18.60;47.90;;;;;;5022921;28;45190;-56
2022/03/20 15:29:08;;;;;;;4.03;3.47;;;18.60;47.90;;;;;;5025538;28;44873;-58
2022/03/20 15:31:34;;;;;;;4.50;3.95;;;18.60;47.90;;;;;;5018849;28;46068;-58
2022/03/20 15:34:00;;;;;;;4.00;3.60;;;18.60;47.90;;;;;;5025000;28;45525;-55
2022/03/20 15:36:25;;;;;;;3.40;3.10;;;18.60;47.90;;;;;;5019639;28;45424;-57
2022/03/20 15:38:55;;;;;;;4.07;3.50;;;18.60;47.90;;;;;;5023889;28;45518;-59
2022/03/20 15:41:27;;;;;;;4.03;3.63;;;18.50;47.90;;;;;;5020210;28;45998;-55
2022/03/20 15:43:54;;;;;;;4.57;3.97;;;18.60;48.50;;;;;;5022946;28;45063;-55
2022/03/20 15:46:21;;;;;;;4.68;4.10;;;18.50;47.90;;;;;;5020732;28;45055;-59
2022/03/20 15:48:46;;;;;;;4.18;3.63;;;18.50;47.90;;;;;;5024432;28;44884;-57
2022/03/20 15:51:12;;;;;;;4.43;3.58;;;18.50;47.90;;;;;;5017483;28;45942;-58
2022/03/20 15:53:38;;;;;;;4.45;4.00;;;18.50;47.90;;;;;;5023907;28;45130;-54
2022/03/20 15:56:04;;;;;;;4.57;3.85;;;18.50;47.90;;;;;;5029957;28;44995;-57
2022/03/20 15:58:31;;;;;;;4.30;3.75;;;18.50;47.90;;;;;;5013672;28;45138;-58
2022/03/20 16:00:57;;;;;;;4.47;3.95;;;18.50;47.90;;;;;;5013716;28;45325;-59
2022/03/20 16:03:23;;;;;;;4.80;3.78;;;18.50;47.90;;;;;;5017063;28;45562;-56
2022/03/20 16:05:49;;;;;;;4.65;3.95;;;18.50;48.00;;;;;;5009148;28;44906;-59
2022/03/20 16:08:15;;;;;;;4.68;3.78;;;18.40;48.00;;;;;;5014470;28;45720;-55
2022/03/20 16:10:40;;;;;;;5.72;4.20;;;18.40;48.10;;;;;;5006194;28;46302;-57
2022/03/20 16:13:10;;;;;;;4.45;3.80;;;18.40;48.10;;;;;;5020455;28;44945;-55
2022/03/20 16:15:37;;;;;;;4.82;3.65;;;18.30;48.10;;;;;;5021219;28;46225;-59
2022/03/20 16:18:07;;;;;;;4.75;3.95;;;18.40;48.10;;;;;;5018309;28;45327;-56
2022/03/20 16:20:33;;;;;;;5.00;4.20;;;18.40;48.10;;;;;;5023470;28;47191;-56
2022/03/20 16:28:30;;;;;;;5.03;3.97;;;18.30;48.00;;;;;;5018648;28;45828;-57
2022/03/20 16:31:03;;;;;;;5.90;3.85;;;18.40;48.00;;;;;;5021119;28;46284;-57
2022/03/20 16:33:30;;;;;;;4.40;4.00;;;18.30;48.00;;;;;;5015633;28;45087;-58
2022/03/20 16:35:55;;;;;;;5.13;4.22;;;18.30;48.00;;;;;;5035987;28;45761;-55
2022/03/20 16:38:22;;;;;;;5.00;4.40;;;18.30;48.00;;;;;;5035662;28;45654;-59
2022/03/20 16:40:47;;;;;;;5.53;4.10;;;18.30;48.10;;;;;;5002667;28;47130;-56
2022/03/20 16:43:13;;;;;;;5.28;4.15;;;18.30;48.10;;;;;;5022722;28;45316;-57
2022/03/20 16:45:41;;;;;;;4.70;4.18;;;18.30;48.00;;;;;;5022940;28;45439;-57
2022/03/20 16:48:07;;;;;;;4.90;3.97;;;18.30;48.00;;;;;;5037156;28;45442;-58
2022/03/20 16:50:32;;;;;;;4.32;3.78;;;18.30;48.10;;;;;;5020145;28;46243;-57
2022/03/20 16:52:58;;;;;;;4.10;3.70;;;18.30;48.10;;;;;;5019551;28;45541;-56
2022/03/20 16:55:23;;;;;;;6.60;4.55;;;18.30;48.10;;;;;;5023028;28;44840;-61
2022/03/20 16:57:49;;;;;;;5.70;4.28;;;18.30;48.10;;;;;;5019988;28;45547;-57
2022/03/20 17:00:15;;;;;;;4.47;3.53;;;18.30;48.10;;;;;;5017640;28;46111;-58
2022/03/20 17:02:41;;;;;;;3.97;3.53;;;18.20;48.00;;;;;;5016629;28;45396;-60
2022/03/20 17:05:08;;;;;;;4.60;4.07;;;18.20;48.00;;;;;;5019359;28;45617;-56
2022/03/20 17:07:34;;;;;;;4.72;3.75;;;18.20;48.00;;;;;;5022256;28;45768;-58
2022/03/20 17:09:59;;;;;;;5.15;4.03;;;18.20;48.10;;;;;;5015081;28;47299;-57
2022/03/20 17:12:25;;;;;;;3.95;3.50;;;18.20;48.10;;;;;;5018010;28;45292;-58
2022/03/20 17:14:51;;;;;;;4.07;3.60;;;18.20;48.20;;;;;;5016516;28;45371;-56
2022/03/20 17:17:17;;;;;;;4.32;3.75;;;18.10;48.10;;;;;;5019523;28;45446;-56
2022/03/20 17:19:43;;;;;;;5.10;4.03;;;18.10;48.10;;;;;;5022759;28;46030;-55
2022/03/20 17:22:10;;;;;;;5.55;4.03;;;18.10;48.10;;;;;;5016169;28;45546;-58
2022/03/20 17:24:35;;;;;;;4.28;3.75;;;18.10;48.10;;;;;;5018212;28;45581;-61
2022/03/20 17:27:01;;;;;;;4.93;3.85;;;18.10;48.10;;;;;;5018811;28;46402;-59
2022/03/20 17:29:26;;;;;;;4.45;3.78;;;18.10;48.20;;;;;;5013566;28;46129;-58
2022/03/20 17:31:54;;;;;;;4.22;3.80;;;18.10;48.30;;;;;;5034620;28;45093;-57
2022/03/20 17:34:20;;;;;;;4.85;4.00;;;18.10;48.30;;;;;;5020534;28;44786;-55
2022/03/20 17:36:46;;;;;;;4.38;3.78;;;18.00;48.30;;;;;;5019470;28;45427;-62